createdAt,value
2018-12-12T09:44:40.559Z,40.33
2018-12-12T09:45:39.606Z,40.63
2018-12-12T09:46:39.583Z,40.73
2018-12-12T09:47:39.822Z,41.14
2018-12-12T09:48:39.560Z,40.42
2018-12-12T09:49:39.660Z,40.64
2018-12-12T09:50:39.549Z,40.35
2018-12-12T09:51:39.786Z,40.03
2018-12-12T09:52:39.532Z,40.55
2018-12-12T09:53:39.504Z,40.42
2018-12-12T09:54:39.492Z,40.45
2018-12-12T09:55:40.413Z,40.23
2018-12-12T09:56:39.907Z,40.33
2018-12-12T09:57:39.465Z,40.33
2018-12-12T09:58:39.453Z,40.33
2018-12-12T09:59:39.438Z,40.03
2018-12-12T10:00:39.475Z,40.13
2018-12-12T10:01:39.674Z,40.42
2018-12-12T10:02:39.405Z,40.03
2018-12-12T10:03:39.384Z,40.53
2018-12-12T10:04:39.417Z,40.63
2018-12-12T10:05:39.378Z,40.23
2018-12-12T10:06:39.356Z,40.33
2018-12-12T10:07:39.346Z,40.53
2018-12-12T10:08:41.049Z,40.23
2018-12-12T10:09:39.368Z,40.83
2018-12-12T10:10:39.389Z,40.33
2018-12-12T10:11:39.610Z,40.03
2018-12-12T10:12:39.284Z,40.42
2018-12-12T10:13:39.293Z,39.63
2018-12-12T10:14:39.256Z,40.23
2018-12-12T10:15:39.272Z,39.73
2018-12-12T10:16:39.260Z,40.03
2018-12-12T10:17:39.268Z,40.13
2018-12-12T10:18:39.263Z,39.42
2018-12-12T10:19:39.465Z,40.23
2018-12-12T10:20:39.249Z,40.03
2018-12-12T10:21:39.190Z,39.73
2018-12-12T10:22:39.179Z,40.23
2018-12-12T10:23:39.178Z,40.83
2018-12-12T10:24:39.418Z,40.53
2018-12-12T10:25:39.191Z,40.83
2018-12-12T10:26:39.140Z,40.63
2018-12-12T10:27:39.149Z,40.53
2018-12-12T10:28:39.132Z,40.23
2018-12-12T10:29:39.456Z,40.33
2018-12-12T10:30:39.178Z,40.63
2018-12-12T10:31:39.352Z,40.23
2018-12-12T10:32:39.083Z,40.33
2018-12-12T10:33:39.056Z,40.03
2018-12-12T10:34:39.061Z,39.73
2018-12-12T10:35:39.024Z,39.53
2018-12-12T10:36:39.282Z,39.73
2018-12-12T10:37:39.030Z,40.53
2018-12-12T10:38:39.023Z,40.33
2018-12-12T10:39:38.992Z,40.42
2018-12-12T10:40:38.967Z,40.03
2018-12-12T10:41:38.974Z,40.73
2018-12-12T10:42:38.951Z,40.83
2018-12-12T10:43:38.942Z,40.42
2018-12-12T10:44:39.200Z,40.42
2018-12-12T10:45:38.915Z,39.73
2018-12-12T10:46:38.918Z,40.03
2018-12-12T10:47:38.900Z,39.92
2018-12-12T10:48:38.954Z,39.73
2018-12-12T10:49:38.889Z,40.31
2018-12-12T10:50:39.115Z,40.71
2018-12-12T10:51:38.860Z,40.13
2018-12-12T10:52:38.881Z,40.81
2018-12-12T10:53:39.115Z,40.51
2018-12-12T10:54:38.842Z,40.61
2018-12-12T10:55:38.838Z,40.13
2018-12-12T10:56:38.950Z,40.71
2018-12-12T10:57:38.820Z,40.71
2018-12-12T10:58:39.123Z,40.21
2018-12-12T10:59:39.026Z,40.31
2018-12-12T11:00:39.055Z,40.42
2018-12-12T11:01:38.751Z,40.61
2018-12-12T11:02:39.009Z,40.71
2018-12-12T11:03:44.093Z,40.71
2018-12-12T11:04:38.714Z,40.81
2018-12-12T11:05:38.693Z,40.41
2018-12-12T11:06:38.682Z,40.53
2018-12-12T11:07:38.694Z,41.01
2018-12-12T11:08:38.666Z,40.63
2018-12-12T11:09:38.692Z,40.61
2018-12-12T11:10:42.780Z,40.31
2018-12-12T11:11:38.634Z,40.11
2018-12-12T11:12:38.634Z,40.63
2018-12-12T11:13:38.870Z,40.11
2018-12-12T11:14:38.712Z,40.42
2018-12-12T11:15:38.607Z,40.33
2018-12-12T11:16:38.581Z,40.03
2018-12-12T11:17:38.594Z,40.01
2018-12-12T11:18:39.518Z,40.13
2018-12-12T11:19:38.836Z,39.83
2018-12-12T11:20:38.565Z,40.03
2018-12-12T11:21:38.590Z,39.83
2018-12-12T11:22:38.525Z,39.83
2018-12-12T11:23:38.522Z,39.63
2018-12-12T11:24:38.553Z,39.92
2018-12-12T11:25:38.483Z,40.03
2018-12-12T11:26:38.770Z,40.03
2018-12-12T11:27:38.510Z,39.71
2018-12-12T11:28:38.435Z,40.03
2018-12-12T11:29:39.467Z,39.83
2018-12-12T11:30:38.679Z,40.03
2018-12-12T11:31:38.424Z,40.33
2018-12-12T11:32:38.644Z,40.33
2018-12-12T11:33:38.395Z,40.23
2018-12-12T11:34:38.643Z,39.83
2018-12-12T11:35:38.565Z,40.23
2018-12-12T11:36:39.679Z,40.33
2018-12-12T11:37:38.374Z,40.42
2018-12-12T11:38:38.364Z,40.13
2018-12-12T11:39:45.396Z,40.23
2018-12-12T11:41:00.634Z,40.23
2018-12-12T11:42:00.643Z,40.73
2018-12-12T11:43:00.610Z,40.73
2018-12-12T11:44:00.621Z,40.63
2018-12-12T11:45:00.588Z,40.83
2018-12-12T11:46:00.887Z,40.83
2018-12-12T11:47:00.556Z,40.73
2018-12-12T11:48:00.551Z,40.42
2018-12-12T11:49:00.571Z,39.83
2018-12-12T11:50:00.577Z,40.33
2018-12-12T11:51:00.542Z,40.03
2018-12-12T11:52:00.578Z,39.92
2018-12-12T11:53:00.517Z,40.33
2018-12-12T11:54:00.484Z,40.73
2018-12-12T11:55:00.558Z,40.73
2018-12-12T11:56:00.473Z,40.53
2018-12-12T11:57:00.521Z,40.53
2018-12-12T11:58:00.450Z,40.53
2018-12-12T11:59:00.682Z,40.63
2018-12-12T12:00:00.426Z,40.63
2018-12-12T12:01:00.402Z,40.63
2018-12-12T12:02:00.420Z,40.73
2018-12-12T12:03:00.635Z,40.73
2018-12-12T12:04:00.699Z,40.83
2018-12-12T12:05:00.356Z,40.63
2018-12-12T12:06:00.354Z,40.53
2018-12-12T12:07:00.339Z,40.53
2018-12-12T12:08:00.332Z,40.42
2018-12-12T12:09:00.323Z,40.42
2018-12-12T12:10:00.300Z,40.42
2018-12-12T12:11:00.291Z,40.73
2018-12-12T12:12:00.539Z,40.83
2018-12-12T12:13:00.449Z,40.91
2018-12-12T12:14:00.256Z,41.03
2018-12-12T12:15:00.266Z,40.63
2018-12-12T12:16:00.233Z,40.63
2018-12-12T12:17:00.264Z,40.42
2018-12-12T12:18:00.227Z,40.53
2018-12-12T12:19:00.245Z,40.42
2018-12-12T12:20:00.192Z,40.73
2018-12-12T12:21:00.183Z,40.71
2018-12-12T12:22:00.177Z,40.61
2018-12-12T12:23:00.166Z,40.73
2018-12-12T12:24:00.161Z,40.51
2018-12-12T12:25:00.384Z,40.42
2018-12-12T12:26:00.125Z,40.63
2018-12-12T12:27:00.132Z,40.83
2018-12-12T12:28:00.107Z,40.81
2018-12-12T12:29:00.106Z,40.73
2018-12-12T12:30:00.088Z,40.83
2018-12-12T12:31:00.070Z,40.63
2018-12-12T12:32:00.085Z,41.01
2018-12-12T12:33:00.036Z,40.51
2018-12-12T12:34:03.206Z,40.71
2018-12-12T12:35:00.248Z,40.51
2018-12-12T12:36:00.004Z,40.53
2018-12-12T12:36:59.984Z,40.13
2018-12-12T12:37:59.980Z,40.53
2018-12-12T12:38:59.959Z,40.73
2018-12-12T12:40:00.222Z,40.73
2018-12-12T12:40:59.946Z,40.31
2018-12-12T12:41:59.933Z,39.81
2018-12-12T12:42:59.941Z,39.01
2018-12-12T12:43:59.910Z,38.90
2018-12-12T12:44:59.921Z,39.01
2018-12-12T12:45:59.902Z,37.41
2018-12-12T12:46:59.921Z,37.60
2018-12-12T12:47:59.892Z,37.71
2018-12-12T12:48:59.871Z,36.41
2018-12-12T12:50:04.221Z,36.91
2018-12-12T12:50:59.879Z,36.41
2018-12-12T12:51:59.832Z,36.60
2018-12-12T12:52:59.819Z,36.60
2018-12-12T12:53:59.878Z,35.91
2018-12-12T12:54:59.788Z,36.71
2018-12-12T12:55:59.772Z,36.30
2018-12-12T12:56:59.762Z,36.60
2018-12-12T12:57:59.899Z,35.91
2018-12-12T12:58:59.747Z,35.61
2018-12-12T12:59:59.750Z,35.61
2018-12-12T13:00:59.740Z,35.51
2018-12-12T13:01:59.705Z,35.43
2018-12-12T13:02:59.960Z,35.51
2018-12-12T13:04:00.019Z,34.91
2018-12-12T13:04:59.673Z,35.00
2018-12-12T13:05:59.658Z,35.00
2018-12-12T13:06:59.653Z,35.11
2018-12-12T13:07:59.637Z,35.11
2018-12-12T13:08:59.890Z,35.21
2018-12-12T13:09:59.615Z,34.80
2018-12-12T13:10:59.852Z,34.91
2018-12-12T13:11:59.902Z,35.41
2018-12-12T13:13:02.590Z,35.30
2018-12-12T13:13:59.668Z,35.51
2018-12-12T13:14:59.610Z,35.61
2018-12-12T13:16:00.366Z,35.51
2018-12-12T13:16:59.553Z,36.21
2018-12-12T13:17:59.523Z,35.51
2018-12-12T13:18:59.535Z,35.51
2018-12-12T13:19:59.774Z,35.91
2018-12-12T13:20:59.569Z,35.61
2018-12-12T13:21:59.477Z,36.01
2018-12-12T13:22:59.481Z,35.80
2018-12-12T13:23:59.469Z,35.91
2018-12-12T13:24:59.478Z,35.80
2018-12-12T13:25:59.480Z,36.01
2018-12-12T13:26:59.435Z,36.41
2018-12-12T13:27:59.414Z,36.51
2018-12-12T13:28:59.398Z,36.23
2018-12-12T13:29:59.392Z,36.52
2018-12-12T13:30:59.377Z,36.01
2018-12-12T13:31:59.369Z,36.23
2018-12-12T13:32:59.603Z,36.41
2018-12-12T13:33:59.334Z,36.51
2018-12-12T13:34:59.435Z,36.11
2018-12-12T13:35:59.363Z,36.81
2018-12-12T13:36:59.315Z,36.82
2018-12-12T13:37:59.309Z,36.73
2018-12-12T13:38:59.284Z,36.81
2018-12-12T13:39:59.270Z,37.23
2018-12-12T13:40:59.303Z,37.43
2018-12-12T13:41:59.256Z,37.03
2018-12-12T13:42:59.250Z,37.03
2018-12-12T13:43:59.249Z,36.62
2018-12-12T13:44:59.313Z,36.93
2018-12-12T13:45:59.205Z,37.12
2018-12-12T13:46:59.429Z,36.73
2018-12-12T13:47:59.189Z,36.73
2018-12-12T13:48:59.166Z,36.73
2018-12-12T13:49:59.170Z,37.43
2018-12-12T13:50:59.498Z,37.43
2018-12-12T13:52:00.371Z,37.34
2018-12-12T13:52:59.165Z,37.54
2018-12-12T13:53:59.124Z,37.64
2018-12-12T13:54:59.114Z,37.34
2018-12-12T13:55:59.362Z,37.44
2018-12-12T13:56:59.087Z,36.94
2018-12-12T13:57:59.073Z,37.14
2018-12-12T13:58:59.480Z,36.94
2018-12-12T13:59:59.075Z,37.04
2018-12-12T14:00:59.050Z,37.34
2018-12-12T14:01:59.030Z,37.34
2018-12-12T14:02:59.014Z,37.34
2018-12-12T14:03:59.005Z,37.54
2018-12-12T14:04:59.001Z,37.84
2018-12-12T14:05:59.195Z,38.04
2018-12-12T14:06:59.223Z,37.64
2018-12-12T14:07:58.967Z,37.54
2018-12-12T14:08:58.996Z,37.54
2018-12-12T14:09:59.012Z,37.75
2018-12-12T14:10:58.917Z,37.54
2018-12-12T14:11:58.922Z,37.64
2018-12-12T14:12:58.896Z,37.54
2018-12-12T14:13:58.897Z,37.84
2018-12-12T14:14:58.878Z,37.84
2018-12-12T14:15:58.874Z,37.75
2018-12-12T14:16:58.868Z,37.75
2018-12-12T14:18:00.272Z,37.54
2018-12-12T14:18:58.843Z,37.84
2018-12-12T14:19:58.823Z,37.84
2018-12-12T14:20:58.817Z,37.46
2018-12-12T14:21:58.806Z,37.54
2018-12-12T14:22:58.868Z,37.54
2018-12-12T14:23:58.787Z,37.56
2018-12-12T14:24:58.784Z,37.56
2018-12-12T14:25:58.761Z,37.66
2018-12-12T14:26:58.746Z,37.76
2018-12-12T14:27:58.757Z,37.46
2018-12-12T14:28:58.725Z,37.56
2018-12-12T14:29:58.703Z,37.54
2018-12-12T14:30:58.719Z,37.56
2018-12-12T14:31:58.829Z,37.56
2018-12-12T14:32:58.919Z,38.16
2018-12-12T14:33:58.686Z,37.66
2018-12-12T14:34:58.903Z,37.56
2018-12-12T14:36:01.144Z,37.96
2018-12-12T14:36:58.631Z,37.86
2018-12-12T14:37:58.658Z,37.86
2018-12-12T14:38:58.605Z,37.76
2018-12-12T14:39:58.657Z,38.16
2018-12-12T14:40:58.585Z,37.86
2018-12-12T14:41:58.580Z,38.16
2018-12-12T14:42:58.569Z,37.86
2018-12-12T14:44:02.119Z,37.86
2018-12-12T14:44:58.569Z,37.86
2018-12-12T14:45:58.642Z,38.26
2018-12-12T14:46:58.512Z,37.76
2018-12-12T14:47:58.512Z,38.16
2018-12-12T14:48:58.495Z,37.96
2018-12-12T14:49:58.538Z,37.86
2018-12-12T14:50:58.474Z,37.86
2018-12-12T14:51:58.460Z,38.36
2018-12-12T14:52:58.483Z,38.47
2018-12-12T14:53:58.431Z,37.86
2018-12-12T14:54:59.419Z,37.96
2018-12-12T14:55:58.415Z,37.96
2018-12-12T14:56:58.404Z,38.36
2018-12-12T14:57:58.387Z,38.47
2018-12-12T14:58:58.373Z,38.47
2018-12-12T14:59:58.389Z,38.36
2018-12-12T15:00:58.349Z,38.47
2018-12-12T15:01:58.337Z,38.18
2018-12-12T15:02:58.344Z,37.48
2018-12-12T15:03:58.345Z,37.66
2018-12-12T15:04:58.306Z,38.47
2018-12-12T15:05:58.297Z,38.36
2018-12-12T15:06:58.285Z,38.36
2018-12-12T15:07:58.528Z,38.28
2018-12-12T15:08:58.260Z,37.68
2018-12-12T15:09:58.302Z,38.48
2018-12-12T15:10:58.252Z,38.48
2018-12-12T15:11:58.690Z,38.48
2018-12-12T15:12:58.231Z,38.26
2018-12-12T15:13:58.221Z,38.38
2018-12-12T15:14:58.238Z,38.38
2018-12-12T15:15:58.187Z,38.28
2018-12-12T15:16:58.199Z,37.68
2018-12-12T15:17:58.215Z,37.88
2018-12-12T15:18:58.192Z,38.38
2018-12-12T15:20:01.663Z,37.98
2018-12-12T15:20:58.132Z,37.98
2018-12-12T15:21:58.144Z,37.78
2018-12-12T15:22:58.109Z,37.88
2018-12-12T15:23:58.101Z,37.78
2018-12-12T15:24:58.080Z,37.88
2018-12-12T15:25:58.070Z,37.78
2018-12-12T15:26:58.055Z,37.78
2018-12-12T15:27:58.042Z,37.70
2018-12-12T15:28:58.051Z,37.60
2018-12-12T15:29:58.042Z,37.78
2018-12-12T15:30:58.014Z,37.68
2018-12-12T15:31:57.999Z,37.79
2018-12-12T15:32:58.003Z,37.60
2018-12-12T15:33:57.975Z,37.70
2018-12-12T15:34:58.012Z,37.60
2018-12-12T15:35:57.954Z,37.70
2018-12-12T15:36:57.941Z,37.50
2018-12-12T15:37:57.983Z,37.48
2018-12-12T15:38:57.915Z,37.78
2018-12-12T15:39:58.153Z,37.88
2018-12-12T15:40:57.896Z,37.79
2018-12-12T15:41:57.904Z,37.79
2018-12-12T15:42:58.208Z,37.29
2018-12-12T15:43:58.116Z,37.20
2018-12-12T15:45:57.850Z,37.50
2018-12-12T15:46:58.107Z,37.18
2018-12-12T15:47:58.079Z,37.70
2018-12-12T15:48:58.062Z,37.68
2018-12-12T15:50:57.786Z,37.79
2018-12-12T15:51:57.780Z,37.70
2018-12-12T15:52:57.760Z,37.60
2018-12-12T15:59:57.683Z,37.50
